Time;durP1;ratioP1;P1;durP2;ratioP2;P2;SDS_P1;SDS_P2;PMS_P1;PMS_P2;Temp;Humidity;BMP_temperature;BMP_pressure;BME280_temperature;BME280_humidity;BME280_pressure;Samples;Min_cycle;Max_cycle;Signal;HPM_P1;HPM_P2
2021/09/25 00:01:06;;;;;;;7.93;6.73;;;19.30;1.00;;;;;;5114864;28;20286;-55
2021/09/25 00:03:31;;;;;;;9.30;8.50;;;19.20;1.00;;;;;;5114635;28;20214;-54
2021/09/25 00:05:57;;;;;;;11.50;8.20;;;19.20;1.00;;;;;;5115286;28;20171;-55
2021/09/25 00:08:22;;;;;;;7.97;7.17;;;19.10;1.00;;;;;;5114323;28;20212;-55
2021/09/25 00:10:48;;;;;;;9.40;7.83;;;19.00;1.00;;;;;;5109581;28;20261;-54
2021/09/25 00:13:13;;;;;;;8.93;8.03;;;19.00;1.00;;;;;;5114798;28;20636;-54
2021/09/25 00:15:39;;;;;;;8.43;7.73;;;19.00;1.00;;;;;;5110059;28;20275;-54
2021/09/25 00:18:05;;;;;;;8.67;7.03;;;19.00;1.00;;;;;;5110132;28;20239;-55
2021/09/25 00:20:33;;;;;;;6.70;5.77;;;19.10;1.00;;;;;;5112180;28;20189;-55
2021/09/25 00:22:59;;;;;;;7.27;6.53;;;19.30;1.00;;;;;;5114769;28;20995;-54
2021/09/25 00:25:24;;;;;;;9.33;7.73;;;19.10;1.00;;;;;;5111666;28;20557;-55
2021/09/25 00:27:51;;;;;;;7.07;6.40;;;19.10;1.00;;;;;;5109751;28;20228;-55
2021/09/25 00:30:17;;;;;;;7.50;6.70;;;19.00;1.00;;;;;;5114461;28;20181;-55
2021/09/25 00:32:43;;;;;;;8.03;6.60;;;19.00;1.00;;;;;;5110383;28;20475;-55
2021/09/25 00:35:10;;;;;;;7.50;6.90;;;19.00;1.00;;;;;;5114722;28;20439;-54
2021/09/25 00:37:37;;;;;;;7.80;6.87;;;19.00;1.00;;;;;;5103331;28;20453;-54
2021/09/25 00:40:03;;;;;;;8.73;7.83;;;19.00;1.00;;;;;;5114029;28;20434;-55
2021/09/25 00:42:29;;;;;;;9.07;8.10;;;19.00;1.00;;;;;;5112789;28;20436;-55
2021/09/25 00:44:55;;;;;;;7.90;7.10;;;19.00;1.00;;;;;;5111107;28;20471;-54
2021/09/25 00:47:20;;;;;;;7.20;6.50;;;18.90;1.00;;;;;;5112529;28;20193;-55
2021/09/25 00:49:46;;;;;;;8.37;7.57;;;19.00;1.00;;;;;;5112186;28;20230;-55
2021/09/25 00:52:11;;;;;;;8.83;7.80;;;18.90;1.00;;;;;;5108229;28;20189;-54
2021/09/25 00:54:38;;;;;;;10.37;9.37;;;18.90;1.00;;;;;;5103116;28;20266;-55
2021/09/25 00:57:04;;;;;;;8.33;7.63;;;18.90;1.00;;;;;;5102754;28;20204;-54
2021/09/25 00:59:30;;;;;;;9.00;8.17;;;18.90;1.00;;;;;;5113737;28;20435;-55
2021/09/25 01:01:57;;;;;;;10.63;8.17;;;18.80;1.00;;;;;;5104466;28;20420;-56
2021/09/25 01:04:23;;;;;;;8.17;7.33;;;18.80;1.00;;;;;;5107656;28;20497;-55
2021/09/25 01:06:48;;;;;;;7.57;6.90;;;18.80;1.00;;;;;;5112591;28;20464;-55
2021/09/25 01:09:14;;;;;;;8.73;7.23;;;18.80;1.00;;;;;;5111233;28;20186;-55
2021/09/25 01:11:40;;;;;;;7.80;7.10;;;18.80;1.00;;;;;;5108114;28;20178;-55
2021/09/25 01:14:05;;;;;;;7.87;7.17;;;18.70;1.00;;;;;;5113382;28;20201;-55
2021/09/25 01:16:31;;;;;;;7.60;6.90;;;18.80;1.00;;;;;;5109380;28;20205;-55
2021/09/25 01:18:57;;;;;;;8.80;8.00;;;18.80;1.00;;;;;;5105837;28;20193;-56
2021/09/25 01:21:23;;;;;;;10.37;9.37;;;18.80;1.00;;;;;;5111035;28;20544;-55
2021/09/25 01:23:49;;;;;;;9.27;7.40;;;18.90;1.00;;;;;;5113537;28;20213;-55
2021/09/25 01:26:14;;;;;;;7.27;6.00;;;18.90;1.00;;;;;;5107678;28;20221;-55
2021/09/25 01:28:41;;;;;;;10.70;6.20;;;19.00;1.00;;;;;;5113210;28;20308;-56
2021/09/25 01:31:09;;;;;;;7.97;7.20;;;19.00;1.00;;;;;;5103164;28;20197;-55
2021/09/25 01:33:43;;;;;;;6.53;5.93;;;18.90;1.00;;;;;;5110835;28;20426;-55
2021/09/25 01:36:10;;;;;;;7.23;6.30;;;18.90;1.00;;;;;;5113326;28;20429;-55
2021/09/25 01:38:36;;;;;;;7.93;5.50;;;18.80;1.00;;;;;;5113475;28;20802;-54
2021/09/25 01:41:02;;;;;;;6.87;6.23;;;18.90;1.00;;;;;;5109768;28;20817;-54
2021/09/25 01:43:29;;;;;;;6.33;5.73;;;18.90;1.00;;;;;;5106735;28;20557;-55
2021/09/25 01:45:56;;;;;;;5.77;4.30;;;18.90;1.00;;;;;;5110485;28;20212;-55
2021/09/25 01:48:21;;;;;;;4.87;4.30;;;19.20;1.00;;;;;;5101246;28;20416;-55
2021/09/25 01:50:47;;;;;;;5.10;4.70;;;19.20;1.00;;;;;;5106766;28;20547;-55
2021/09/25 01:53:13;;;;;;;4.73;4.33;;;19.20;1.00;;;;;;5112847;28;20217;-55
2021/09/25 01:55:39;;;;;;;4.50;4.20;;;19.30;1.00;;;;;;5112811;28;20643;-59
2021/09/25 01:58:05;;;;;;;4.30;3.90;;;19.40;1.00;;;;;;5109180;28;20514;-58
2021/09/25 02:00:34;;;;;;;5.30;4.80;;;19.40;1.00;;;;;;5106415;28;20190;-57
2021/09/25 02:03:00;;;;;;;4.40;4.00;;;19.40;1.00;;;;;;5110120;28;20413;-58
2021/09/25 02:05:26;;;;;;;5.03;4.40;;;19.50;1.00;;;;;;5109939;28;20517;-57
2021/09/25 02:07:52;;;;;;;4.20;3.80;;;19.50;1.00;;;;;;5107372;28;20915;-57
2021/09/25 02:10:18;;;;;;;4.70;3.73;;;19.40;1.00;;;;;;5108225;28;20246;-57
2021/09/25 02:12:44;;;;;;;5.20;3.50;;;19.50;1.00;;;;;;5109995;28;20176;-57
2021/09/25 02:15:10;;;;;;;4.50;4.13;;;19.50;1.00;;;;;;5109738;28;20929;-57
2021/09/25 02:17:36;;;;;;;3.93;3.57;;;19.50;1.00;;;;;;5107975;28;20451;-58
2021/09/25 02:20:04;;;;;;;3.90;3.47;;;19.60;1.00;;;;;;5108691;28;20417;-57
2021/09/25 02:22:29;;;;;;;4.07;3.63;;;19.60;1.00;;;;;;5106664;28;20193;-58
2021/09/25 02:24:55;;;;;;;4.23;3.83;;;19.50;1.00;;;;;;5109200;28;20473;-58
2021/09/25 02:27:20;;;;;;;3.80;3.50;;;19.50;1.00;;;;;;5109046;28;20193;-57
2021/09/25 02:29:46;;;;;;;6.60;3.70;;;19.60;1.00;;;;;;5092053;28;20178;-57
2021/09/25 02:32:11;;;;;;;5.90;3.90;;;19.50;1.00;;;;;;5104602;28;20188;-58
2021/09/25 02:34:38;;;;;;;4.40;4.00;;;19.40;1.00;;;;;;5099183;28;20191;-59
2021/09/25 02:37:05;;;;;;;3.60;3.30;;;19.50;1.00;;;;;;5108659;28;20270;-57
2021/09/25 02:39:31;;;;;;;6.23;4.10;;;19.50;1.00;;;;;;5105648;28;20779;-58
2021/09/25 02:41:56;;;;;;;5.50;4.07;;;19.50;1.00;;;;;;5108669;28;20525;-57
2021/09/25 02:44:22;;;;;;;4.07;3.67;;;19.50;1.00;;;;;;5106364;28;20532;-57
2021/09/25 02:46:48;;;;;;;5.30;3.80;;;19.50;1.00;;;;;;5106730;28;20368;-57
2021/09/25 02:49:18;;;;;;;4.23;3.90;;;19.50;1.00;;;;;;5108124;28;20292;-59
2021/09/25 02:51:45;;;;;;;4.27;3.90;;;19.50;1.00;;;;;;5106367;28;20452;-58
2021/09/25 02:54:11;;;;;;;5.70;4.40;;;19.50;1.00;;;;;;5108355;28;20486;-58
2021/09/25 02:56:36;;;;;;;4.80;4.27;;;19.50;1.00;;;;;;5107523;28;20425;-57
2021/09/25 02:59:03;;;;;;;5.83;4.23;;;19.30;1.00;;;;;;5100410;28;20218;-57
2021/09/25 03:01:29;;;;;;;4.20;3.80;;;19.40;1.00;;;;;;5109837;28;20467;-58
2021/09/25 03:03:54;;;;;;;4.33;3.93;;;19.50;1.00;;;;;;5110287;28;20510;-56
2021/09/25 03:06:22;;;;;;;5.37;4.80;;;19.50;1.00;;;;;;5107388;28;20368;-57
2021/09/25 03:08:47;;;;;;;3.90;3.50;;;19.50;1.00;;;;;;5102259;28;20185;-57
2021/09/25 03:11:13;;;;;;;4.93;4.53;;;19.50;1.00;;;;;;5102680;28;20775;-57
2021/09/25 03:13:38;;;;;;;4.97;4.50;;;19.40;1.00;;;;;;5110486;28;20293;-57
2021/09/25 03:16:04;;;;;;;5.40;3.80;;;19.50;1.00;;;;;;5108558;28;20185;-57
2021/09/25 03:18:29;;;;;;;5.97;4.20;;;19.50;1.00;;;;;;5108605;28;20194;-54
2021/09/25 03:20:55;;;;;;;4.20;3.70;;;19.40;1.00;;;;;;5108848;28;20281;-54
2021/09/25 03:23:21;;;;;;;4.23;3.93;;;19.40;1.00;;;;;;5109547;28;20224;-53
2021/09/25 03:25:47;;;;;;;4.30;3.87;;;19.40;1.00;;;;;;5093570;28;20231;-53
2021/09/25 03:28:12;;;;;;;11.50;3.90;;;19.40;1.00;;;;;;5105947;28;20683;-54
2021/09/25 03:30:38;;;;;;;4.53;4.13;;;19.40;1.00;;;;;;5104912;28;20548;-52
2021/09/25 03:33:04;;;;;;;4.17;3.77;;;19.40;1.00;;;;;;5102352;28;20211;-56
2021/09/25 03:35:30;;;;;;;4.93;3.77;;;19.30;1.00;;;;;;5102989;28;20188;-54
2021/09/25 03:37:56;;;;;;;4.53;3.90;;;19.40;1.00;;;;;;5112166;28;20599;-55
2021/09/25 03:40:21;;;;;;;3.83;3.53;;;19.40;1.00;;;;;;5100399;28;20425;-56
2021/09/25 03:42:49;;;;;;;4.80;3.83;;;19.30;1.00;;;;;;5099234;28;20292;-57
2021/09/25 03:45:15;;;;;;;5.80;4.50;;;19.40;1.00;;;;;;5113160;28;20477;-56
2021/09/25 03:47:41;;;;;;;6.73;4.70;;;19.40;1.00;;;;;;5114006;28;20450;-57
2021/09/25 03:50:07;;;;;;;4.20;3.90;;;19.40;1.00;;;;;;5113260;28;20548;-55
2021/09/25 03:52:33;;;;;;;4.07;3.63;;;19.30;1.00;;;;;;5109352;28;20416;-55
2021/09/25 03:54:59;;;;;;;4.60;3.73;;;19.30;1.00;;;;;;5113632;28;20542;-55
2021/09/25 03:57:24;;;;;;;3.93;3.50;;;19.40;1.00;;;;;;5113014;28;20222;-56
2021/09/25 03:59:50;;;;;;;4.43;3.60;;;19.30;1.00;;;;;;5114908;28;20197;-55
2021/09/25 04:02:15;;;;;;;4.50;3.90;;;19.30;1.00;;;;;;5113016;28;20263;-56
2021/09/25 04:04:41;;;;;;;4.80;4.00;;;19.30;1.00;;;;;;5113298;28;20206;-57
2021/09/25 04:07:06;;;;;;;4.13;3.80;;;19.40;1.00;;;;;;5101235;28;20186;-56
2021/09/25 04:09:32;;;;;;;4.13;3.77;;;19.30;1.00;;;;;;5114712;28;20220;-56
2021/09/25 04:11:57;;;;;;;6.93;4.00;;;19.30;1.00;;;;;;5113687;28;20188;-56
2021/09/25 04:14:23;;;;;;;3.80;3.50;;;19.20;1.00;;;;;;5114322;28;20282;-56
2021/09/25 04:16:52;;;;;;;4.83;4.20;;;19.20;1.00;;;;;;5105191;28;20667;-57
2021/09/25 04:19:18;;;;;;;4.47;3.70;;;19.20;1.00;;;;;;5110550;28;20183;-57
2021/09/25 04:21:44;;;;;;;3.43;3.10;;;19.30;1.00;;;;;;5113858;28;20513;-55
2021/09/25 04:24:09;;;;;;;4.50;4.10;;;19.20;1.00;;;;;;5100082;28;20679;-57
2021/09/25 04:26:35;;;;;;;4.00;3.70;;;19.20;1.00;;;;;;5108301;28;20221;-55
2021/09/25 04:29:00;;;;;;;3.87;3.57;;;19.20;1.00;;;;;;5114747;28;20185;-57
2021/09/25 04:31:26;;;;;;;4.03;3.67;;;19.20;1.00;;;;;;5100361;28;20258;-56
2021/09/25 04:33:51;;;;;;;3.77;3.47;;;19.30;1.00;;;;;;5109161;28;20272;-56
2021/09/25 04:36:17;;;;;;;4.20;3.30;;;19.20;1.00;;;;;;5106695;28;20190;-57
2021/09/25 04:38:43;;;;;;;4.73;3.47;;;19.20;1.00;;;;;;5113730;28;20295;-56
2021/09/25 04:41:08;;;;;;;4.27;3.80;;;19.10;1.00;;;;;;5115251;28;20216;-57
2021/09/25 04:43:34;;;;;;;4.77;3.70;;;19.10;1.00;;;;;;5110502;28;20207;-57
2021/09/25 04:46:00;;;;;;;4.17;3.77;;;19.00;1.00;;;;;;5110131;28;20359;-57
2021/09/25 04:48:25;;;;;;;4.37;3.47;;;19.00;1.00;;;;;;5108950;28;20216;-58
2021/09/25 04:50:51;;;;;;;4.33;3.93;;;19.00;1.00;;;;;;5111150;28;20257;-57
2021/09/25 04:53:18;;;;;;;4.63;4.07;;;19.00;1.00;;;;;;5110434;28;20206;-55
2021/09/25 04:55:44;;;;;;;4.20;3.73;;;18.90;1.00;;;;;;5100677;28;20449;-54
2021/09/25 04:58:11;;;;;;;3.73;3.43;;;19.00;1.00;;;;;;5108594;28;20182;-55
2021/09/25 05:00:36;;;;;;;4.27;3.87;;;18.80;1.00;;;;;;5113303;27;20453;-56
2021/09/25 05:03:02;;;;;;;4.50;4.10;;;18.80;1.00;;;;;;5108287;28;20491;-55
2021/09/25 05:05:28;;;;;;;5.60;4.40;;;18.80;1.00;;;;;;5113719;28;20237;-54
2021/09/25 05:07:53;;;;;;;6.30;4.57;;;18.80;1.00;;;;;;5107541;28;20839;-55
2021/09/25 05:10:19;;;;;;;5.17;4.63;;;18.80;1.00;;;;;;5105463;28;20176;-56
2021/09/25 05:12:45;;;;;;;4.37;3.97;;;18.70;1.00;;;;;;5113599;28;20561;-54
2021/09/25 05:15:11;;;;;;;5.67;4.50;;;18.70;1.00;;;;;;5113279;28;20185;-54
2021/09/25 05:17:37;;;;;;;7.67;3.87;;;18.60;1.00;;;;;;5101962;28;20190;-55
2021/09/25 05:20:06;;;;;;;4.97;4.07;;;18.60;1.00;;;;;;5113513;28;20793;-54
2021/09/25 05:22:32;;;;;;;6.13;5.53;;;18.70;1.00;;;;;;5104949;28;20666;-54
2021/09/25 05:24:57;;;;;;;4.87;4.40;;;18.70;1.00;;;;;;5106842;28;20496;-54
2021/09/25 05:27:23;;;;;;;4.67;4.03;;;18.70;1.00;;;;;;5105380;28;20509;-54
2021/09/25 05:29:48;;;;;;;5.23;4.80;;;18.80;1.00;;;;;;5110025;28;20181;-55
2021/09/25 05:32:14;;;;;;;4.77;4.37;;;18.70;1.00;;;;;;5106363;28;20173;-55
2021/09/25 05:34:42;;;;;;;5.20;4.30;;;18.80;1.00;;;;;;5110576;28;20206;-56
2021/09/25 05:37:09;;;;;;;4.60;4.10;;;18.90;1.00;;;;;;5109616;28;20192;-54
2021/09/25 05:39:34;;;;;;;5.53;4.70;;;19.00;1.00;;;;;;5108760;28;20418;-54
2021/09/25 05:42:01;;;;;;;4.83;4.40;;;19.10;1.00;;;;;;5109184;28;20452;-54
2021/09/25 05:44:26;;;;;;;8.07;4.30;;;19.00;1.00;;;;;;5112861;28;20210;-55
2021/09/25 05:46:52;;;;;;;5.10;4.60;;;19.00;1.00;;;;;;5109838;28;20501;-55
2021/09/25 05:49:17;;;;;;;4.67;4.27;;;19.00;1.00;;;;;;5103277;28;20281;-55
2021/09/25 05:51:43;;;;;;;4.57;3.90;;;19.00;1.00;;;;;;5112857;28;20186;-55
2021/09/25 05:54:09;;;;;;;5.70;4.70;;;19.00;1.00;;;;;;5112858;28;20691;-54
2021/09/25 05:56:34;;;;;;;4.90;4.50;;;19.00;1.00;;;;;;5112813;28;20185;-55
2021/09/25 05:59:00;;;;;;;5.13;4.63;;;19.00;1.00;;;;;;5112496;28;20701;-56
2021/09/25 06:01:26;;;;;;;4.30;3.90;;;19.10;1.00;;;;;;5108331;28;20662;-54
2021/09/25 06:03:51;;;;;;;6.37;4.97;;;19.10;1.00;;;;;;5112302;28;20244;-56
2021/09/25 06:06:17;;;;;;;5.73;4.53;;;19.20;1.00;;;;;;5108989;28;20229;-55
2021/09/25 06:08:43;;;;;;;6.60;4.40;;;19.20;1.00;;;;;;5106887;28;20190;-55
2021/09/25 06:11:08;;;;;;;4.93;3.97;;;19.20;1.00;;;;;;5112558;28;20177;-55
2021/09/25 06:13:34;;;;;;;4.70;4.30;;;19.20;1.00;;;;;;5112936;28;20469;-55
2021/09/25 06:16:00;;;;;;;5.87;4.50;;;19.10;1.00;;;;;;5112168;28;20184;-55
2021/09/25 06:18:26;;;;;;;7.70;4.37;;;19.20;1.00;;;;;;5109692;28;20188;-55
2021/09/25 06:20:51;;;;;;;4.30;3.83;;;19.20;1.00;;;;;;5108246;28;20446;-55
2021/09/25 06:23:17;;;;;;;5.70;4.23;;;19.20;1.00;;;;;;5108266;28;20530;-55
2021/09/25 06:25:43;;;;;;;8.40;4.13;;;19.30;1.00;;;;;;5108701;28;20643;-54
2021/09/25 06:28:08;;;;;;;4.60;4.03;;;19.30;1.00;;;;;;5110413;28;20193;-56
2021/09/25 06:30:40;;;;;;;4.20;3.80;;;19.30;1.00;;;;;;5108431;28;20183;-56
2021/09/25 06:33:09;;;;;;;4.90;4.47;;;19.30;1.00;;;;;;5104863;28;20524;-56
2021/09/25 06:35:34;;;;;;;6.00;3.40;;;19.40;1.00;;;;;;5107150;28;20425;-54
2021/09/25 06:38:00;;;;;;;4.93;4.07;;;19.40;1.00;;;;;;5101151;28;20419;-54
2021/09/25 06:40:26;;;;;;;4.77;3.60;;;19.40;1.00;;;;;;5111053;28;20179;-54
2021/09/25 06:42:51;;;;;;;5.77;3.87;;;19.50;1.00;;;;;;5098808;28;20186;-54
2021/09/25 06:45:17;;;;;;;5.07;4.50;;;19.50;1.00;;;;;;5110906;28;20212;-55
2021/09/25 06:47:42;;;;;;;6.73;4.50;;;19.60;1.00;;;;;;5110721;28;20178;-54
2021/09/25 06:50:09;;;;;;;6.03;4.30;;;19.70;1.00;;;;;;5105867;28;20614;-54
2021/09/25 06:52:34;;;;;;;5.10;3.90;;;19.60;1.00;;;;;;5106859;28;20528;-54
2021/09/25 06:55:00;;;;;;;6.90;3.77;;;19.70;1.00;;;;;;5110914;28;20455;-54
2021/09/25 06:57:26;;;;;;;6.70;3.80;;;19.80;1.00;;;;;;5110369;28;20190;-55
2021/09/25 06:59:52;;;;;;;4.57;3.63;;;19.90;1.00;;;;;;5108328;28;20439;-54
2021/09/25 07:02:18;;;;;;;5.63;3.90;;;19.90;1.00;;;;;;5102759;28;20176;-55
2021/09/25 07:04:43;;;;;;;5.07;4.50;;;20.00;1.00;;;;;;5105505;28;20881;-55
2021/09/25 07:07:09;;;;;;;5.80;4.00;;;20.00;1.00;;;;;;5111230;28;20175;-54
2021/09/25 07:09:34;;;;;;;4.63;4.10;;;20.00;1.00;;;;;;5111162;28;20177;-54
2021/09/25 07:12:00;;;;;;;4.47;4.07;;;20.00;1.00;;;;;;5111345;28;20211;-55
2021/09/25 07:14:25;;;;;;;4.10;3.70;;;20.10;1.00;;;;;;5111281;28;20182;-55
2021/09/25 07:16:51;;;;;;;4.30;3.80;;;20.10;1.00;;;;;;5111273;28;20184;-55
2021/09/25 07:19:17;;;;;;;5.33;3.67;;;20.20;1.00;;;;;;5108606;28;20193;-55
2021/09/25 07:21:42;;;;;;;4.57;4.17;;;20.20;1.00;;;;;;5114680;28;20188;-55
2021/09/25 07:24:08;;;;;;;5.20;4.00;;;20.30;1.00;;;;;;5115242;28;20206;-56
2021/09/25 07:26:34;;;;;;;4.70;3.93;;;20.30;1.00;;;;;;5113902;28;20193;-56
2021/09/25 07:28:59;;;;;;;5.57;3.90;;;20.40;1.00;;;;;;5112830;28;20711;-55
2021/09/25 07:31:25;;;;;;;6.17;3.73;;;20.50;1.00;;;;;;5109646;28;20492;-55
2021/09/25 07:33:51;;;;;;;3.73;3.43;;;20.40;1.00;;;;;;5112642;28;20178;-56
2021/09/25 07:36:17;;;;;;;6.00;3.73;;;20.50;1.00;;;;;;5109842;28;20651;-55
2021/09/25 07:38:42;;;;;;;4.27;3.20;;;20.50;1.00;;;;;;5110638;28;20182;-56
2021/09/25 07:41:08;;;;;;;4.20;3.90;;;20.60;1.00;;;;;;5113798;28;20919;-55
2021/09/25 07:43:34;;;;;;;5.13;3.67;;;20.70;1.00;;;;;;5108616;28;20206;-56
2021/09/25 07:45:59;;;;;;;4.70;3.63;;;20.70;1.00;;;;;;5114072;28;20532;-55
2021/09/25 07:48:25;;;;;;;3.90;3.50;;;20.50;1.00;;;;;;5105221;28;20526;-56
2021/09/25 07:50:51;;;;;;;4.60;3.43;;;20.60;1.00;;;;;;5112604;28;20215;-56
2021/09/25 07:53:17;;;;;;;7.30;3.40;;;20.70;1.00;;;;;;5113142;27;20411;-55
2021/09/25 07:55:43;;;;;;;3.27;2.97;;;20.80;1.00;;;;;;5113614;28;20420;-56
2021/09/25 07:58:08;;;;;;;5.60;3.83;;;20.80;1.00;;;;;;5114262;28;20213;-56
2021/09/25 08:00:35;;;;;;;4.67;3.80;;;20.90;1.00;;;;;;5113608;28;20182;-55
2021/09/25 08:03:01;;;;;;;4.40;4.00;;;20.90;1.00;;;;;;5112572;28;20182;-55
2021/09/25 08:05:26;;;;;;;4.53;4.13;;;20.80;1.00;;;;;;5107094;28;20463;-55
2021/09/25 08:07:52;;;;;;;4.30;3.47;;;20.90;1.00;;;;;;5114186;28;20861;-55
2021/09/25 08:10:17;;;;;;;4.10;3.80;;;21.00;1.00;;;;;;5113933;28;20628;-55
2021/09/25 08:12:43;;;;;;;7.07;4.20;;;21.10;1.00;;;;;;5113315;28;20192;-54
2021/09/25 08:15:11;;;;;;;4.20;3.53;;;21.20;1.00;;;;;;5109114;28;20444;-54
2021/09/25 08:17:37;;;;;;;4.43;4.10;;;21.20;1.00;;;;;;5106611;28;20407;-54
2021/09/25 08:20:06;;;;;;;4.27;3.87;;;21.10;1.00;;;;;;5111496;28;20436;-55
2021/09/25 08:22:31;;;;;;;4.63;4.23;;;21.10;1.00;;;;;;5104957;28;20498;-55
2021/09/25 08:24:57;;;;;;;4.83;4.00;;;21.10;1.00;;;;;;5103311;27;20555;-55
2021/09/25 08:27:23;;;;;;;5.17;4.67;;;21.30;1.00;;;;;;5096612;28;20187;-53
2021/09/25 08:29:48;;;;;;;8.63;5.37;;;21.30;1.00;;;;;;5106641;28;20608;-55
2021/09/25 08:32:14;;;;;;;5.07;4.23;;;21.40;1.00;;;;;;5109218;28;20667;-54
2021/09/25 08:34:39;;;;;;;5.00;4.60;;;21.50;1.00;;;;;;5106309;28;20196;-55
2021/09/25 08:37:06;;;;;;;4.50;4.10;;;21.40;1.00;;;;;;5107662;28;20199;-55
2021/09/25 08:39:32;;;;;;;6.77;4.37;;;21.40;1.00;;;;;;5110953;28;20191;-54
2021/09/25 08:42:00;;;;;;;4.30;3.90;;;21.40;1.00;;;;;;5108564;28;20506;-55
2021/09/25 08:44:26;;;;;;;4.37;3.63;;;21.50;1.00;;;;;;5111079;28;20441;-55
2021/09/25 08:46:53;;;;;;;3.70;3.40;;;21.70;1.00;;;;;;5108363;28;20412;-55
2021/09/25 08:49:19;;;;;;;6.73;4.53;;;21.80;1.00;;;;;;5112206;27;20546;-55
2021/09/25 08:51:45;;;;;;;5.00;4.60;;;21.90;1.00;;;;;;5107535;28;20849;-55
2021/09/25 08:54:11;;;;;;;7.37;3.90;;;22.00;1.00;;;;;;5103113;28;21410;-55
2021/09/25 08:56:38;;;;;;;7.67;4.60;;;22.00;1.00;;;;;;5100225;27;20203;-55
2021/09/25 08:59:05;;;;;;;8.43;4.40;;;22.00;1.00;;;;;;5110302;28;20415;-56
2021/09/25 09:01:31;;;;;;;4.87;4.47;;;21.80;1.00;;;;;;5106432;28;20875;-55
2021/09/25 09:03:57;;;;;;;5.20;4.57;;;21.60;1.00;;;;;;5109382;28;20433;-55
2021/09/25 09:06:28;;;;;;;5.83;4.60;;;21.60;1.00;;;;;;5102892;27;20420;-55
2021/09/25 09:08:55;;;;;;;6.23;4.37;;;21.50;1.00;;;;;;5111511;28;20414;-55
2021/09/25 09:11:23;;;;;;;5.13;4.27;;;21.50;1.00;;;;;;5112501;28;20741;-55
2021/09/25 09:13:52;;;;;;;6.70;4.90;;;21.50;1.00;;;;;;5108935;27;20444;-55
2021/09/25 09:16:18;;;;;;;4.63;4.23;;;21.60;1.00;;;;;;5111192;28;20430;-56
2021/09/25 09:18:46;;;;;;;6.67;3.97;;;21.70;1.00;;;;;;5106097;28;20428;-56
2021/09/25 09:21:15;;;;;;;4.80;4.40;;;22.00;1.00;;;;;;5097138;28;20212;-55
2021/09/25 09:23:48;;;;;;;5.23;4.30;;;22.10;1.00;;;;;;5105574;27;20434;-55
2021/09/25 09:26:16;;;;;;;4.23;3.83;;;22.10;1.00;;;;;;5111631;28;20433;-54
2021/09/25 09:28:42;;;;;;;5.07;4.60;;;22.20;1.00;;;;;;5101467;28;20450;-55
2021/09/25 09:31:09;;;;;;;5.47;4.93;;;22.40;1.00;;;;;;5100905;28;20423;-55
2021/09/25 09:33:39;;;;;;;5.00;4.47;;;22.40;1.00;;;;;;5112301;28;20525;-55
2021/09/25 09:36:28;;;;;;;4.90;4.50;;;22.30;1.00;;;;;;5106690;28;20751;-55
2021/09/25 09:39:06;;;;;;;6.03;5.43;;;22.50;1.00;;;;;;5104600;28;20418;-54
2021/09/25 09:41:38;;;;;;;5.50;5.10;;;22.50;1.00;;;;;;5103859;28;20413;-55
2021/09/25 09:44:15;;;;;;;6.37;5.00;;;22.50;1.00;;;;;;5110482;28;20599;-55
2021/09/25 09:46:50;;;;;;;7.53;5.57;;;22.40;1.00;;;;;;5088529;28;20450;-55
2021/09/25 09:49:18;;;;;;;4.80;4.40;;;22.30;1.00;;;;;;5111662;28;20427;-55
2021/09/25 09:51:49;;;;;;;7.33;5.50;;;22.30;1.00;;;;;;5106849;28;20440;-55
2021/09/25 09:54:23;;;;;;;5.40;4.70;;;22.20;1.00;;;;;;5103601;28;20401;-55
2021/09/25 09:56:52;;;;;;;6.90;4.23;;;22.30;1.00;;;;;;5112099;28;20411;-55
2021/09/25 09:59:18;;;;;;;4.53;4.13;;;22.40;1.00;;;;;;5107286;28;20919;-55
2021/09/25 10:01:45;;;;;;;4.40;4.00;;;22.70;1.00;;;;;;5110113;28;20438;-54
2021/09/25 10:04:11;;;;;;;5.90;4.10;;;23.00;1.00;;;;;;5106332;28;20655;-56
2021/09/25 10:06:38;;;;;;;5.80;5.20;;;23.60;1.00;;;;;;5114235;27;20415;-54
2021/09/25 10:09:06;;;;;;;5.87;5.00;;;23.80;1.00;;;;;;5108306;28;20440;-54
2021/09/25 10:11:32;;;;;;;4.80;4.23;;;23.90;1.00;;;;;;5103095;28;20803;-55
2021/09/25 10:14:00;;;;;;;4.90;4.50;;;23.70;1.00;;;;;;5105327;28;20444;-55
2021/09/25 10:16:25;;;;;;;5.50;4.60;;;23.90;1.00;;;;;;5110566;28;20444;-54
2021/09/25 10:18:53;;;;;;;5.33;4.83;;;24.00;1.00;;;;;;5107865;28;20415;-55
2021/09/25 10:21:20;;;;;;;4.90;4.50;;;23.80;1.00;;;;;;5101411;28;20206;-54
2021/09/25 10:23:57;;;;;;;5.70;4.30;;;23.60;1.00;;;;;;5108056;28;20580;-55
2021/09/25 10:26:23;;;;;;;4.90;3.97;;;23.70;1.00;;;;;;5108910;28;20759;-54
2021/09/25 10:29:00;;;;;;;4.40;4.10;;;23.70;1.00;;;;;;5108785;28;20508;-55
2021/09/25 10:31:26;;;;;;;5.10;4.60;;;23.70;1.00;;;;;;5109900;28;20940;-55
2021/09/25 10:34:14;;;;;;;4.37;3.97;;;23.60;1.00;;;;;;5093570;28;20435;-54
2021/09/25 10:36:49;;;;;;;5.07;4.37;;;23.30;1.00;;;;;;5108053;28;20417;-55
2021/09/25 10:39:25;;;;;;;4.40;4.00;;;23.50;1.00;;;;;;5103848;28;20915;-55
2021/09/25 10:42:21;;;;;;;5.80;5.30;;;23.70;1.00;;;;;;5092669;28;20495;-55
2021/09/25 10:44:52;;;;;;;5.87;4.83;;;23.90;1.00;;;;;;5106735;28;20469;-55
2021/09/25 10:47:21;;;;;;;4.83;4.43;;;23.90;1.00;;;;;;5110158;28;20448;-55
2021/09/25 10:49:54;;;;;;;5.27;4.63;;;23.90;1.00;;;;;;5107550;28;20496;-55
2021/09/25 10:52:22;;;;;;;7.30;5.07;;;23.90;1.00;;;;;;5105497;28;20452;-55
2021/09/25 10:55:19;;;;;;;5.50;5.00;;;24.00;1.00;;;;;;5112651;28;20931;-56
2021/09/25 10:58:10;;;;;;;4.47;4.07;;;23.90;1.00;;;;;;5112885;28;20443;-55
2021/09/25 11:00:51;;;;;;;7.07;4.23;;;24.00;1.00;;;;;;5108004;27;20497;-56
2021/09/25 11:03:47;;;;;;;5.13;4.67;;;24.00;1.00;;;;;;5108472;28;20441;-54
2021/09/25 11:06:29;;;;;;;6.00;4.10;;;24.00;1.00;;;;;;5103042;28;20441;-55
2021/09/25 11:09:16;;;;;;;5.00;4.47;;;24.10;1.00;;;;;;5108796;28;20498;-56
2021/09/25 11:11:45;;;;;;;4.67;4.27;;;24.20;1.00;;;;;;5114591;28;20402;-55
2021/09/25 11:14:21;;;;;;;5.10;4.27;;;24.20;1.00;;;;;;5112134;28;20426;-55
2021/09/25 11:17:13;;;;;;;5.03;4.63;;;24.30;1.00;;;;;;5114480;28;20490;-55
2021/09/25 11:20:04;;;;;;;5.20;4.60;;;24.20;1.00;;;;;;5113322;28;20428;-55
2021/09/25 11:22:34;;;;;;;4.17;3.77;;;24.30;1.00;;;;;;5107770;28;20416;-55
2021/09/25 11:25:19;;;;;;;5.30;4.27;;;24.60;1.00;;;;;;5100418;28;20440;-54
2021/09/25 11:27:50;;;;;;;4.40;3.97;;;24.50;1.00;;;;;;5112639;28;20500;-55
2021/09/25 11:30:17;;;;;;;3.40;3.10;;;24.50;1.00;;;;;;5110072;28;20411;-55
2021/09/25 11:32:50;;;;;;;4.20;3.80;;;24.50;1.00;;;;;;5109725;28;20411;-55
2021/09/25 11:35:18;;;;;;;4.43;4.03;;;24.50;1.00;;;;;;5106609;28;20505;-56
2021/09/25 11:37:47;;;;;;;3.70;3.40;;;24.50;1.00;;;;;;5105004;28;20445;-55
2021/09/25 11:40:13;;;;;;;3.90;3.60;;;24.40;1.00;;;;;;5111796;28;20406;-55
2021/09/25 11:42:39;;;;;;;3.90;3.60;;;24.50;1.00;;;;;;5114072;28;20786;-56
2021/09/25 11:45:07;;;;;;;4.40;3.80;;;24.70;1.00;;;;;;5113299;28;20210;-56
2021/09/25 11:47:40;;;;;;;4.00;3.60;;;25.00;1.00;;;;;;5108862;28;20217;-56
2021/09/25 11:50:37;;;;;;;4.13;3.63;;;25.20;1.00;;;;;;5111970;28;20423;-57
2021/09/25 11:53:13;;;;;;;4.43;3.50;;;25.20;1.00;;;;;;5080515;28;20416;-54
2021/09/25 11:55:40;;;;;;;3.60;3.30;;;25.10;1.00;;;;;;5086832;28;20444;-56
2021/09/25 11:58:11;;;;;;;3.43;3.13;;;24.90;1.00;;;;;;5113967;28;20451;-55
2021/09/25 12:00:49;;;;;;;5.67;3.53;;;25.00;1.00;;;;;;5113832;28;20415;-56
2021/09/25 12:03:17;;;;;;;3.37;3.07;;;25.10;1.00;;;;;;5113443;28;20535;-56
2021/09/25 12:05:51;;;;;;;3.57;3.30;;;25.10;1.00;;;;;;5113257;28;20463;-56
2021/09/25 12:08:23;;;;;;;3.33;2.90;;;25.40;1.00;;;;;;5113820;28;20973;-56
2021/09/25 12:10:50;;;;;;;3.10;2.80;;;25.70;1.00;;;;;;5114130;28;20473;-55
2021/09/25 12:13:26;;;;;;;3.00;2.80;;;25.60;1.00;;;;;;5113856;28;20437;-56
2021/09/25 12:15:54;;;;;;;2.90;2.67;;;25.60;1.00;;;;;;5105788;28;20442;-55
2021/09/25 12:18:22;;;;;;;3.03;2.43;;;25.60;1.00;;;;;;5109966;28;20464;-57
2021/09/25 12:20:50;;;;;;;2.70;2.43;;;25.60;1.00;;;;;;5113646;28;20792;-56
2021/09/25 12:23:20;;;;;;;2.97;2.50;;;25.70;1.00;;;;;;5108705;27;20436;-57
2021/09/25 12:25:46;;;;;;;2.60;2.40;;;25.40;1.00;;;;;;5112102;28;20464;-55
2021/09/25 12:28:32;;;;;;;3.07;2.77;;;25.30;1.00;;;;;;5113736;28;20426;-55
2021/09/25 12:31:01;;;;;;;2.87;2.43;;;25.30;1.00;;;;;;5113566;28;20453;-55
2021/09/25 12:33:27;;;;;;;3.10;2.37;;;25.20;1.00;;;;;;5113184;28;20410;-56
2021/09/25 12:36:03;;;;;;;2.77;2.57;;;25.50;1.00;;;;;;5106460;28;20429;-56
2021/09/25 12:38:31;;;;;;;2.53;2.23;;;25.60;1.00;;;;;;5112030;28;20644;-56
2021/09/25 12:41:05;;;;;;;3.87;2.17;;;25.60;1.00;;;;;;5113387;28;20454;-55
2021/09/25 12:43:55;;;;;;;2.93;2.73;;;25.40;1.00;;;;;;5113066;28;20420;-56
2021/09/25 12:46:28;;;;;;;2.80;2.60;;;25.20;1.00;;;;;;5113360;28;20414;-56
2021/09/25 12:49:07;;;;;;;2.63;2.43;;;25.00;1.00;;;;;;5105938;28;20432;-56
2021/09/25 12:51:37;;;;;;;2.10;1.90;;;25.00;1.00;;;;;;5112870;28;20484;-55
2021/09/25 12:54:08;;;;;;;2.33;1.90;;;24.80;1.00;;;;;;5113540;28;20432;-56
2021/09/25 12:56:49;;;;;;;2.67;2.47;;;24.80;1.00;;;;;;5103360;28;20777;-58
2021/09/25 12:59:18;;;;;;;3.70;2.40;;;24.50;1.00;;;;;;5108451;28;20433;-56
2021/09/25 13:01:49;;;;;;;2.87;2.57;;;24.40;1.00;;;;;;5113006;28;20451;-57